createdAt,value
2023-01-28T00:00:37.563Z,-0.94
2023-01-28T00:03:03.883Z,-0.94
2023-01-28T00:05:30.241Z,-0.93
2023-01-28T00:07:57.855Z,-0.93
2023-01-28T00:10:24.238Z,-0.95
2023-01-28T00:12:50.963Z,-0.97
2023-01-28T00:15:17.335Z,-0.97
2023-01-28T00:17:43.755Z,-0.94
2023-01-28T00:20:10.478Z,-0.89
2023-01-28T00:22:36.790Z,-0.88
2023-01-28T00:25:03.298Z,-0.93
2023-01-28T00:27:30.888Z,-1.04
2023-01-28T00:29:58.481Z,-1.12
2023-01-28T00:32:24.776Z,-1.20
2023-01-28T00:34:51.135Z,-1.25
2023-01-28T00:37:17.948Z,-1.32
2023-01-28T00:39:44.269Z,-1.42
2023-01-28T00:42:10.589Z,-1.52
2023-01-28T00:44:36.905Z,-1.64
2023-01-28T00:47:03.551Z,-1.75
2023-01-28T00:49:31.240Z,-1.86
2023-01-28T00:51:57.580Z,-1.99
2023-01-28T00:54:23.983Z,-2.10
2023-01-28T00:56:50.346Z,-2.16
2023-01-28T00:59:16.711Z,-2.20
2023-01-28T01:01:43.095Z,-2.28
2023-01-28T01:04:09.472Z,-2.32
2023-01-28T01:06:40.052Z,-2.42
2023-01-28T01:09:08.664Z,-2.47
2023-01-28T01:11:35.081Z,-2.54
2023-01-28T01:14:03.893Z,-2.62
2023-01-28T01:16:32.207Z,-2.68
2023-01-28T01:18:59.286Z,-2.73
2023-01-28T01:21:28.489Z,-2.76
2023-01-28T01:23:55.039Z,-2.77
2023-01-28T01:26:21.681Z,-2.80
2023-01-28T01:28:48.283Z,-2.90
2023-01-28T01:31:16.084Z,-2.97
2023-01-28T01:33:43.238Z,-3.01
2023-01-28T01:36:10.746Z,-3.05
2023-01-28T01:38:37.088Z,-3.06
2023-01-28T01:41:04.157Z,-3.10
2023-01-28T01:43:49.110Z,-3.13
2023-01-28T01:46:18.123Z,-3.13
2023-01-28T01:48:44.677Z,-3.15
2023-01-28T01:51:13.144Z,-3.16
2023-01-28T01:53:40.950Z,-3.17
2023-01-28T01:56:09.544Z,-3.20
2023-01-28T01:58:39.044Z,-3.19
2023-01-28T02:01:06.447Z,-3.23
2023-01-28T02:03:41.243Z,-3.31
2023-01-28T02:06:08.545Z,-3.35
2023-01-28T02:08:34.893Z,-3.37
2023-01-28T02:11:06.352Z,-3.40
2023-01-28T02:13:35.087Z,-3.43
2023-01-28T02:16:03.179Z,-3.45
2023-01-28T02:18:29.583Z,-3.46
2023-01-28T02:20:55.872Z,-3.56
2023-01-28T02:23:22.144Z,-3.62
2023-01-28T02:25:48.444Z,-3.59
2023-01-28T02:28:26.659Z,-3.63
2023-01-28T02:30:59.274Z,-3.66
2023-01-28T02:33:36.000Z,-3.66
2023-01-28T02:36:06.470Z,-3.67
2023-01-28T02:38:36.296Z,-3.68
2023-01-28T02:41:07.380Z,-3.68
2023-01-28T02:43:33.661Z,-3.66
2023-01-28T02:46:20.796Z,-3.69
2023-01-28T02:48:47.181Z,-3.69
2023-01-28T02:51:22.760Z,-3.68
2023-01-28T02:53:57.664Z,-3.69
2023-01-28T02:56:35.516Z,-3.72
2023-01-28T02:59:27.506Z,-3.75
2023-01-28T03:01:58.377Z,-3.79
2023-01-28T03:04:29.131Z,-3.85
2023-01-28T03:06:58.534Z,-3.88
2023-01-28T03:09:27.090Z,-3.92
2023-01-28T03:12:15.441Z,-4.00
2023-01-28T03:15:01.200Z,-4.01
2023-01-28T03:17:58.249Z,-4.00
2023-01-28T03:20:45.471Z,-3.95
2023-01-28T03:23:33.149Z,-3.92
2023-01-28T03:26:19.218Z,-3.98
2023-01-28T03:29:04.899Z,-4.03
2023-01-28T03:31:50.272Z,-4.01
2023-01-28T03:34:36.381Z,-4.01
2023-01-28T03:37:03.001Z,-3.99
2023-01-28T03:39:30.172Z,-3.98
2023-01-28T03:42:07.183Z,-4.00
2023-01-28T03:44:52.102Z,-4.02
2023-01-28T03:47:21.521Z,-4.01
2023-01-28T03:49:51.618Z,-4.04
2023-01-28T03:52:19.444Z,-4.03
2023-01-28T03:54:48.414Z,-4.03
2023-01-28T03:57:18.074Z,-4.03
2023-01-28T03:59:44.518Z,-4.07
2023-01-28T04:02:13.502Z,-4.04
2023-01-28T04:04:40.638Z,-4.08
2023-01-28T04:07:08.714Z,-4.09
2023-01-28T04:09:35.840Z,-4.08
2023-01-28T04:12:02.478Z,-4.09
2023-01-28T04:14:29.203Z,-4.11
2023-01-28T04:16:55.960Z,-4.12
2023-01-28T04:19:22.777Z,-4.14
2023-01-28T04:21:49.186Z,-4.14
2023-01-28T04:24:16.378Z,-4.16
2023-01-28T04:26:42.694Z,-4.18
2023-01-28T04:29:09.031Z,-4.22
2023-01-28T04:31:35.407Z,-4.25
2023-01-28T04:34:01.807Z,-4.29
2023-01-28T04:36:28.203Z,-4.37
2023-01-28T04:38:54.514Z,-4.40
2023-01-28T04:41:20.822Z,-4.43
2023-01-28T04:43:49.259Z,-4.43
2023-01-28T04:46:16.407Z,-4.43
2023-01-28T04:48:42.996Z,-4.44
2023-01-28T04:51:09.391Z,-4.44
2023-01-28T04:53:35.695Z,-4.45
2023-01-28T04:56:02.010Z,-4.48
2023-01-28T04:58:28.334Z,-4.46
2023-01-28T05:00:58.313Z,-4.43
2023-01-28T05:03:25.038Z,-4.50
2023-01-28T05:05:51.723Z,-4.51
2023-01-28T05:08:18.311Z,-4.53
2023-01-28T05:10:44.950Z,-4.59
2023-01-28T05:13:11.252Z,-4.62
2023-01-28T05:15:37.594Z,-4.64
2023-01-28T05:18:04.133Z,-4.65
2023-01-28T05:20:30.452Z,-4.64
2023-01-28T05:22:56.788Z,-4.63
2023-01-28T05:25:23.116Z,-4.61
2023-01-28T05:27:52.476Z,-4.63
2023-01-28T05:30:19.412Z,-4.64
2023-01-28T05:32:46.130Z,-4.64
2023-01-28T05:35:12.496Z,-4.64
2023-01-28T05:37:38.802Z,-4.71
2023-01-28T05:40:05.396Z,-4.66
2023-01-28T05:42:31.683Z,-4.65
2023-01-28T05:44:58.001Z,-4.62
2023-01-28T05:47:24.297Z,-4.63
2023-01-28T05:49:50.597Z,-4.64
2023-01-28T05:52:16.898Z,-4.66
2023-01-28T05:54:43.235Z,-4.77
2023-01-28T05:57:09.596Z,-4.84
2023-01-28T05:59:35.910Z,-4.80
2023-01-28T06:02:02.285Z,-4.82
2023-01-28T06:04:28.719Z,-4.78
2023-01-28T06:06:55.067Z,-4.84
2023-01-28T06:09:21.365Z,-4.90
2023-01-28T06:11:47.671Z,-4.96
2023-01-28T06:14:14.044Z,-4.96
2023-01-28T06:16:40.437Z,-4.90
2023-01-28T06:19:06.976Z,-4.87
2023-01-28T06:21:33.537Z,-4.86
2023-01-28T06:23:59.929Z,-4.88
2023-01-28T06:26:26.417Z,-4.86
2023-01-28T06:28:52.739Z,-4.79
2023-01-28T06:31:19.190Z,-4.83
2023-01-28T06:33:45.515Z,-4.84
2023-01-28T06:36:11.849Z,-4.87
2023-01-28T06:38:38.264Z,-4.91
2023-01-28T06:41:04.711Z,-4.92
2023-01-28T06:43:31.052Z,-4.90
2023-01-28T06:45:58.440Z,-4.89
2023-01-28T06:48:25.021Z,-4.90
2023-01-28T06:50:51.460Z,-4.96
2023-01-28T06:53:18.336Z,-4.96
2023-01-28T06:55:44.939Z,-4.98
2023-01-28T06:58:11.355Z,-4.98
2023-01-28T07:00:37.826Z,-5.00
2023-01-28T07:03:05.003Z,-5.04
2023-01-28T07:05:31.850Z,-5.01
2023-01-28T07:07:58.299Z,-5.00
2023-01-28T07:10:24.724Z,-5.02
2023-01-28T07:12:51.098Z,-4.99
2023-01-28T07:15:17.733Z,-4.96
2023-01-28T07:17:44.165Z,-4.93
2023-01-28T07:20:12.632Z,-4.97
2023-01-28T07:22:41.078Z,-4.99
2023-01-28T07:25:07.900Z,-5.01
2023-01-28T07:27:34.234Z,-4.98
2023-01-28T07:30:00.628Z,-4.94
2023-01-28T07:32:27.521Z,-4.91
2023-01-28T07:34:54.058Z,-4.87
2023-01-28T07:37:20.535Z,-4.84
2023-01-28T07:39:46.875Z,-4.84
2023-01-28T07:42:13.530Z,-4.81
2023-01-28T07:44:39.914Z,-4.73
2023-01-28T07:47:06.830Z,-4.57
2023-01-28T07:49:34.142Z,-4.46
2023-01-28T07:52:00.665Z,-4.34
2023-01-28T07:54:26.984Z,-4.22
2023-01-28T07:56:53.283Z,-4.08
2023-01-28T07:59:19.587Z,-4.01
2023-01-28T08:01:45.947Z,-3.94
2023-01-28T08:04:12.436Z,-3.87
2023-01-28T08:06:38.813Z,-3.78
2023-01-28T08:09:06.123Z,-3.65
2023-01-28T08:11:33.010Z,-3.52
2023-01-28T08:14:00.318Z,-3.35
2023-01-28T08:16:27.651Z,-3.22
2023-01-28T08:18:54.064Z,-3.07
2023-01-28T08:21:20.367Z,-2.98
2023-01-28T08:23:46.681Z,-2.88
2023-01-28T08:26:13.113Z,-2.78
2023-01-28T08:28:39.434Z,-2.68
2023-01-28T08:31:05.831Z,-2.60
2023-01-28T08:33:32.380Z,-2.51
2023-01-28T08:35:58.690Z,-2.43
2023-01-28T08:38:25.351Z,-2.34
2023-01-28T08:40:55.399Z,-2.24
2023-01-28T08:43:21.738Z,-2.17
2023-01-28T08:45:48.214Z,-2.08
2023-01-28T08:48:16.040Z,-1.99
2023-01-28T08:50:42.411Z,-1.89
2023-01-28T08:53:12.757Z,-1.81
2023-01-28T08:55:39.063Z,-1.75
2023-01-28T08:58:06.713Z,-1.62
2023-01-28T09:00:33.423Z,-1.49
2023-01-28T09:02:59.917Z,-1.40
2023-01-28T09:05:26.332Z,-1.33
2023-01-28T09:07:52.638Z,-1.24
2023-01-28T09:10:20.467Z,-1.19
2023-01-28T09:12:46.869Z,-1.20
2023-01-28T09:15:13.508Z,-1.16
2023-01-28T09:17:39.996Z,-1.11
2023-01-28T09:20:06.808Z,-1.12
2023-01-28T09:22:33.160Z,-1.12
2023-01-28T09:24:59.511Z,-1.11
2023-01-28T09:27:25.847Z,-1.09
2023-01-28T09:29:52.150Z,-1.10
2023-01-28T09:32:18.452Z,-1.14
2023-01-28T09:34:44.808Z,-1.20
2023-01-28T09:37:11.682Z,-1.22
2023-01-28T09:39:38.269Z,-1.13
2023-01-28T09:42:16.107Z,-1.15
2023-01-28T09:44:42.401Z,-1.12
2023-01-28T09:47:12.689Z,-1.06
2023-01-28T09:49:42.064Z,-1.02
2023-01-28T09:52:13.115Z,-0.98
2023-01-28T09:54:45.101Z,-0.92
2023-01-28T09:57:20.743Z,-0.92
2023-01-28T09:59:47.445Z,-0.90
2023-01-28T10:02:37.323Z,-0.83
2023-01-28T10:05:15.777Z,-0.84
2023-01-28T10:08:03.361Z,-0.83
2023-01-28T10:10:31.589Z,-0.79
2023-01-28T10:13:22.139Z,-0.70
2023-01-28T10:15:55.543Z,-0.70
2023-01-28T10:18:29.360Z,-0.70
2023-01-28T10:20:57.894Z,-0.80
2023-01-28T10:23:32.439Z,-0.89
2023-01-28T10:25:59.559Z,-0.90
2023-01-28T10:28:29.357Z,-0.91
2023-01-28T10:30:55.800Z,-0.93
2023-01-28T10:33:25.295Z,-0.84
2023-01-28T10:35:51.628Z,-0.70
2023-01-28T10:38:20.930Z,-0.71
2023-01-28T10:40:48.201Z,-0.66
2023-01-28T10:43:19.079Z,-0.58
2023-01-28T10:46:04.193Z,-0.54
2023-01-28T10:48:32.917Z,-0.57
2023-01-28T10:51:02.477Z,-0.60
2023-01-28T10:53:35.143Z,-0.59
2023-01-28T10:56:02.569Z,-0.52
2023-01-28T10:58:30.325Z,-0.44
2023-01-28T11:00:57.776Z,-0.42
2023-01-28T11:03:27.361Z,-0.34
2023-01-28T11:05:54.995Z,-0.33
2023-01-28T11:08:22.233Z,-0.27
2023-01-28T11:10:49.114Z,-0.20
2023-01-28T11:13:19.839Z,-0.20
2023-01-28T11:15:47.365Z,-0.11
2023-01-28T11:18:17.488Z,0.01
2023-01-28T11:20:49.796Z,0.17
2023-01-28T11:23:18.709Z,0.23
2023-01-28T11:25:45.036Z,0.34
2023-01-28T11:28:17.656Z,0.23
2023-01-28T11:30:44.088Z,0.36
2023-01-28T11:33:16.264Z,0.36
2023-01-28T11:35:42.668Z,0.44
2023-01-28T11:38:18.751Z,0.48
2023-01-28T11:40:53.054Z,0.49
2023-01-28T11:43:24.075Z,0.33
2023-01-28T11:46:09.472Z,0.32
2023-01-28T11:48:47.312Z,0.39
2023-01-28T11:51:32.207Z,0.43
2023-01-28T11:54:13.783Z,0.36
2023-01-28T11:56:46.417Z,0.36
2023-01-28T11:59:21.783Z,0.37
2023-01-28T12:01:48.072Z,0.29
2023-01-28T12:04:43.993Z,0.28
2023-01-28T12:07:21.241Z,0.20
2023-01-28T12:09:56.199Z,0.18
2023-01-28T12:12:31.294Z,0.14
2023-01-28T12:15:19.752Z,0.23
2023-01-28T12:18:04.917Z,0.40
2023-01-28T12:20:35.184Z,0.60
2023-01-28T12:23:24.301Z,0.91
2023-01-28T12:26:09.323Z,1.10
2023-01-28T12:28:44.709Z,1.01
2023-01-28T12:31:11.311Z,0.75
2023-01-28T12:33:56.858Z,0.71
2023-01-28T12:36:30.176Z,0.54
2023-01-28T12:39:03.350Z,0.56
2023-01-28T12:41:32.892Z,0.56
2023-01-28T12:44:03.834Z,0.57
2023-01-28T12:46:39.073Z,0.50
2023-01-28T12:49:07.872Z,0.48
2023-01-28T12:51:51.160Z,0.50
2023-01-28T12:54:20.516Z,0.49
2023-01-28T12:56:54.890Z,0.47
2023-01-28T12:59:39.367Z,0.42
2023-01-28T13:02:11.799Z,0.41
2023-01-28T13:04:40.990Z,0.40
2023-01-28T13:07:30.561Z,0.43
2023-01-28T13:10:04.648Z,0.45
2023-01-28T13:12:31.848Z,0.45
2023-01-28T13:14:58.887Z,0.45
2023-01-28T13:17:29.542Z,0.43
2023-01-28T13:19:56.871Z,0.45
2023-01-28T13:22:30.851Z,0.40
2023-01-28T13:24:57.570Z,0.38
2023-01-28T13:27:25.932Z,0.37
2023-01-28T13:30:25.160Z,0.37
2023-01-28T13:32:55.757Z,0.36
2023-01-28T13:35:30.977Z,0.36
2023-01-28T13:37:57.923Z,0.41
2023-01-28T13:40:26.349Z,0.37
2023-01-28T13:43:00.702Z,0.39
2023-01-28T13:45:27.410Z,0.41
2023-01-28T13:47:58.371Z,0.49
2023-01-28T13:50:27.178Z,0.57
2023-01-28T13:52:57.678Z,0.58
2023-01-28T13:55:44.844Z,0.59
2023-01-28T13:58:28.753Z,0.47
2023-01-28T14:01:07.387Z,0.48
2023-01-28T14:03:52.307Z,0.48
2023-01-28T14:06:18.588Z,0.48
2023-01-28T14:08:51.082Z,0.56
2023-01-28T14:11:34.845Z,0.62
2023-01-28T14:14:24.158Z,0.62
2023-01-28T14:16:59.575Z,0.62
2023-01-28T14:19:31.599Z,0.57
2023-01-28T14:21:57.913Z,0.55
2023-01-28T14:24:24.515Z,0.54
2023-01-28T14:26:50.977Z,0.49
2023-01-28T14:29:21.523Z,0.44
2023-01-28T14:31:48.130Z,0.44
2023-01-28T14:34:23.933Z,0.47
2023-01-28T14:36:51.487Z,0.50
2023-01-28T14:39:45.717Z,0.55
2023-01-28T14:42:15.739Z,0.60
2023-01-28T14:44:44.276Z,0.70
2023-01-28T14:47:18.265Z,0.70
2023-01-28T14:49:57.726Z,0.63
2023-01-28T14:52:23.997Z,0.65
2023-01-28T14:54:56.443Z,0.58
2023-01-28T14:57:34.497Z,0.49
2023-01-28T15:00:08.051Z,0.44
2023-01-28T15:02:34.397Z,0.38
2023-01-28T15:05:08.131Z,0.33
2023-01-28T15:07:34.451Z,0.29
2023-01-28T15:10:00.744Z,0.24
2023-01-28T15:12:27.462Z,0.21
2023-01-28T15:14:53.827Z,0.18
2023-01-28T15:17:27.428Z,0.15
2023-01-28T15:19:55.743Z,0.15
2023-01-28T15:22:25.540Z,0.16
2023-01-28T15:24:52.069Z,0.17
2023-01-28T15:27:25.000Z,0.17
2023-01-28T15:29:55.737Z,0.17
2023-01-28T15:32:24.261Z,0.17
2023-01-28T15:34:50.587Z,0.18
2023-01-28T15:37:18.289Z,0.17
2023-01-28T15:39:44.648Z,0.14
2023-01-28T15:42:17.206Z,0.14
2023-01-28T15:44:45.447Z,0.12
2023-01-28T15:47:21.876Z,0.13
2023-01-28T15:49:50.177Z,0.14
2023-01-28T15:52:16.521Z,0.12
2023-01-28T15:54:44.436Z,0.10
2023-01-28T15:57:28.491Z,0.06
2023-01-28T16:00:10.544Z,0.02
2023-01-28T16:02:43.385Z,0.01
2023-01-28T16:05:31.173Z,-0.01
2023-01-28T16:07:58.905Z,0.01
2023-01-28T16:10:27.146Z,0.04
2023-01-28T16:12:55.504Z,0.06
2023-01-28T16:15:22.368Z,0.07
2023-01-28T16:17:50.184Z,0.07
2023-01-28T16:20:21.404Z,0.06
2023-01-28T16:22:47.862Z,0.05
2023-01-28T16:25:23.201Z,0.05
2023-01-28T16:27:49.595Z,0.04
2023-01-28T16:30:16.679Z,0.02
2023-01-28T16:32:44.208Z,0.01
2023-01-28T16:35:13.931Z,0.01
2023-01-28T16:37:42.200Z,0.03
2023-01-28T16:40:09.349Z,0.06
2023-01-28T16:42:35.671Z,0.08
2023-01-28T16:45:02.164Z,0.12
2023-01-28T16:47:29.084Z,0.19
2023-01-28T16:49:55.495Z,0.25
2023-01-28T16:52:21.851Z,0.27
2023-01-28T16:54:48.396Z,0.27
2023-01-28T16:57:16.423Z,0.29
2023-01-28T16:59:42.729Z,0.30
2023-01-28T17:02:11.559Z,0.30
2023-01-28T17:04:37.865Z,0.30
2023-01-28T17:07:04.230Z,0.30
2023-01-28T17:09:30.541Z,0.32
2023-01-28T17:11:57.066Z,0.33
2023-01-28T17:14:23.427Z,0.35
2023-01-28T17:16:49.764Z,0.36
2023-01-28T17:19:16.851Z,0.37
2023-01-28T17:21:43.215Z,0.42
2023-01-28T17:24:09.695Z,0.45
2023-01-28T17:26:36.937Z,0.43
2023-01-28T17:29:06.921Z,0.44
2023-01-28T17:31:34.090Z,0.45
2023-01-28T17:34:01.094Z,0.43
2023-01-28T17:36:27.691Z,0.46
2023-01-28T17:38:54.201Z,0.46
2023-01-28T17:41:20.639Z,0.47
2023-01-28T17:43:51.138Z,0.49
2023-01-28T17:46:18.787Z,0.51
2023-01-28T17:48:45.781Z,0.54
2023-01-28T17:51:12.661Z,0.54
2023-01-28T17:53:39.359Z,0.56
2023-01-28T17:56:05.882Z,0.61
2023-01-28T17:58:32.439Z,0.61
2023-01-28T18:00:58.811Z,0.64
2023-01-28T18:03:25.160Z,0.64
2023-01-28T18:05:58.795Z,0.63
2023-01-28T18:08:25.752Z,0.64
2023-01-28T18:10:52.087Z,0.62
2023-01-28T18:13:18.394Z,0.59
2023-01-28T18:15:44.700Z,0.61
2023-01-28T18:18:11.056Z,0.60
2023-01-28T18:20:37.439Z,0.63
2023-01-28T18:23:03.925Z,0.62
2023-01-28T18:25:30.278Z,0.62
2023-01-28T18:27:56.572Z,0.63
2023-01-28T18:30:22.890Z,0.64
2023-01-28T18:32:49.261Z,0.63
2023-01-28T18:35:16.089Z,0.63
2023-01-28T18:37:42.617Z,0.63
2023-01-28T18:40:09.268Z,0.63
2023-01-28T18:42:37.519Z,0.61
2023-01-28T18:45:04.420Z,0.60
2023-01-28T18:47:30.721Z,0.58
2023-01-28T18:49:57.033Z,0.57
2023-01-28T18:52:23.359Z,0.54
2023-01-28T18:54:49.719Z,0.55
2023-01-28T18:57:16.114Z,0.56
2023-01-28T18:59:42.425Z,0.60
2023-01-28T19:02:10.150Z,0.62
2023-01-28T19:04:36.453Z,0.64
2023-01-28T19:07:02.784Z,0.63
2023-01-28T19:09:29.087Z,0.65
2023-01-28T19:11:55.454Z,0.65
2023-01-28T19:14:21.790Z,0.64
2023-01-28T19:16:48.157Z,0.63
2023-01-28T19:19:14.494Z,0.61
2023-01-28T19:21:41.123Z,0.61
2023-01-28T19:24:09.750Z,0.58
2023-01-28T19:26:36.965Z,0.56
2023-01-28T19:29:05.816Z,0.54
2023-01-28T19:31:32.135Z,0.54
2023-01-28T19:33:59.547Z,0.54
2023-01-28T19:36:27.161Z,0.54
2023-01-28T19:38:56.493Z,0.54
2023-01-28T19:41:22.998Z,0.55
2023-01-28T19:43:49.417Z,0.56
2023-01-28T19:46:16.713Z,0.55
2023-01-28T19:48:43.891Z,0.57
2023-01-28T19:51:10.596Z,0.56
2023-01-28T19:53:37.468Z,0.57
2023-01-28T19:56:04.961Z,0.59
2023-01-28T19:58:34.905Z,0.60
2023-01-28T20:01:08.593Z,0.58
2023-01-28T20:03:34.929Z,0.61
2023-01-28T20:06:01.955Z,0.63
2023-01-28T20:08:28.463Z,0.64
2023-01-28T20:11:01.383Z,0.65
2023-01-28T20:13:27.703Z,0.67
2023-01-28T20:15:54.081Z,0.68
2023-01-28T20:18:20.400Z,0.67
2023-01-28T20:20:53.931Z,0.70
2023-01-28T20:23:20.320Z,0.72
2023-01-28T20:25:51.117Z,0.73
2023-01-28T20:28:17.610Z,0.73
2023-01-28T20:30:43.993Z,0.74
2023-01-28T20:33:10.356Z,0.76
2023-01-28T20:35:36.660Z,0.76
2023-01-28T20:38:04.191Z,0.79
2023-01-28T20:40:31.199Z,0.78
2023-01-28T20:42:57.697Z,0.80
2023-01-28T20:45:45.859Z,0.80
2023-01-28T20:48:12.560Z,0.80
2023-01-28T20:50:38.987Z,0.81
2023-01-28T20:53:05.317Z,0.83
2023-01-28T20:55:32.192Z,0.82
2023-01-28T20:57:58.564Z,0.83
2023-01-28T21:00:24.955Z,0.85
2023-01-28T21:02:51.423Z,0.87
2023-01-28T21:05:17.780Z,0.89
2023-01-28T21:07:44.230Z,0.93
2023-01-28T21:10:10.966Z,0.93
2023-01-28T21:12:37.322Z,0.95
2023-01-28T21:15:04.089Z,0.97
2023-01-28T21:17:31.781Z,0.99
2023-01-28T21:19:58.606Z,1.01
2023-01-28T21:22:25.000Z,1.02
2023-01-28T21:24:51.361Z,1.03
2023-01-28T21:27:17.700Z,1.04
2023-01-28T21:29:44.100Z,1.06
2023-01-28T21:32:10.489Z,1.08
2023-01-28T21:34:37.061Z,1.10
2023-01-28T21:37:03.424Z,1.12
2023-01-28T21:39:29.729Z,1.15
2023-01-28T21:41:56.066Z,1.17
2023-01-28T21:44:22.406Z,1.20
2023-01-28T21:46:48.766Z,1.22
2023-01-28T21:49:15.196Z,1.22
2023-01-28T21:51:47.428Z,1.25
2023-01-28T21:54:17.893Z,1.27
2023-01-28T21:56:45.089Z,1.27
2023-01-28T21:59:30.645Z,1.29
2023-01-28T22:01:58.757Z,1.31
2023-01-28T22:04:27.606Z,1.34
2023-01-28T22:06:54.355Z,1.35
2023-01-28T22:09:20.852Z,1.36
2023-01-28T22:11:47.360Z,1.38
2023-01-28T22:14:14.025Z,1.40
2023-01-28T22:16:40.442Z,1.41
2023-01-28T22:19:06.815Z,1.42
2023-01-28T22:21:33.278Z,1.41
2023-01-28T22:23:59.665Z,1.43
2023-01-28T22:26:26.108Z,1.46
2023-01-28T22:28:52.450Z,1.48
2023-01-28T22:31:18.838Z,1.51
2023-01-28T22:33:45.797Z,1.53
2023-01-28T22:36:13.675Z,1.54
2023-01-28T22:38:41.442Z,1.56
2023-01-28T22:41:13.453Z,1.59
2023-01-28T22:43:40.131Z,1.59
2023-01-28T22:46:07.005Z,1.60
2023-01-28T22:48:35.466Z,1.62
2023-01-28T22:51:03.045Z,1.64
2023-01-28T22:53:29.408Z,1.66
2023-01-28T22:55:56.053Z,1.65
2023-01-28T22:58:22.413Z,1.66
2023-01-28T23:00:48.746Z,1.71
2023-01-28T23:03:15.036Z,1.70
2023-01-28T23:05:41.341Z,1.69
2023-01-28T23:08:10.647Z,1.71
2023-01-28T23:10:40.762Z,1.72
2023-01-28T23:13:07.535Z,1.75
2023-01-28T23:15:52.551Z,1.76
2023-01-28T23:18:38.913Z,1.78
2023-01-28T23:21:38.000Z,1.79
2023-01-28T23:24:19.549Z,1.80
2023-01-28T23:26:53.128Z,1.81
2023-01-28T23:29:20.627Z,1.83
2023-01-28T23:31:47.643Z,1.83
2023-01-28T23:34:14.953Z,1.85
2023-01-28T23:36:41.341Z,1.85
2023-01-28T23:39:07.868Z,1.87
2023-01-28T23:41:34.257Z,1.88
2023-01-28T23:44:01.130Z,1.88
2023-01-28T23:46:39.058Z,1.88
2023-01-28T23:49:06.432Z,1.87
2023-01-28T23:51:32.754Z,1.87
2023-01-28T23:53:59.091Z,1.88
2023-01-28T23:56:25.380Z,1.90
2023-01-28T23:58:51.761Z,1.89
